Time;durP1;ratioP1;P1;durP2;ratioP2;P2;SDS_P1;SDS_P2;PMS_P1;PMS_P2;Temp;Humidity;BMP_temperature;BMP_pressure;BME280_temperature;BME280_humidity;BME280_pressure;Samples;Min_cycle;Max_cycle;Signal;HPM_P1;HPM_P2
2020/12/14 00:02:17;;;;;;;5.80;5.30;;;;;;;6.00;89.53;95392.84;5105021;28;20202;-73
2020/12/14 00:04:43;;;;;;;5.30;4.80;;;;;;;6.03;88.69;95395.09;5099570;28;20659;-75
2020/12/14 00:07:09;;;;;;;5.50;5.00;;;;;;;6.00;88.93;95392.84;5103431;28;20219;-74
2020/12/14 00:09:36;;;;;;;5.23;4.83;;;;;;;5.87;89.11;95396.59;5112828;28;20689;-74
2020/12/14 00:12:02;;;;;;;5.07;4.57;;;;;;;5.93;89.26;95394.44;5101200;28;20195;-73
2020/12/14 00:14:29;;;;;;;4.90;4.40;;;;;;;5.88;89.09;95385.47;5102442;28;20192;-73
2020/12/14 00:16:55;;;;;;;4.70;4.30;;;;;;;5.84;88.85;95379.03;5102783;28;20243;-73
2020/12/14 00:19:21;;;;;;;5.03;4.63;;;;;;;5.77;89.64;95382.34;5096152;28;20187;-73
2020/12/14 00:21:50;;;;;;;4.60;4.20;;;;;;;5.75;89.86;95381.72;5112817;28;20250;-75
2020/12/14 00:24:16;;;;;;;4.80;4.40;;;;;;;5.74;89.95;95380.91;5103298;28;20196;-74
2020/12/14 00:26:42;;;;;;;4.10;3.80;;;;;;;5.79;90.10;95378.66;5099879;28;20254;-74
2020/12/14 00:29:08;;;;;;;4.70;4.30;;;;;;;5.88;89.61;95384.63;5112754;28;20214;-74
2020/12/14 00:31:35;;;;;;;4.97;4.30;;;;;;;5.80;89.79;95387.13;5106332;28;20572;-74
2020/12/14 00:34:01;;;;;;;4.83;4.43;;;;;;;5.85;89.87;95383.19;5098130;28;20199;-75
2020/12/14 00:36:27;;;;;;;4.10;3.80;;;;;;;5.69;90.36;95388.22;5107642;28;20880;-74
2020/12/14 00:38:52;;;;;;;5.10;4.30;;;;;;;5.57;91.91;95386.88;5091785;28;20200;-73
2020/12/14 00:41:20;;;;;;;4.03;3.70;;;;;;;5.55;91.93;95387.03;5093119;28;20219;-73
2020/12/14 00:43:48;;;;;;;4.43;4.03;;;;;;;5.55;92.19;95378.56;5107298;28;20203;-76
2020/12/14 00:46:14;;;;;;;4.50;4.10;;;;;;;5.60;92.17;95376.34;5094406;28;20199;-73
2020/12/14 00:48:41;;;;;;;4.50;3.80;;;;;;;5.59;91.13;95379.84;5112268;28;20226;-73
2020/12/14 00:51:07;;;;;;;4.90;4.40;;;;;;;5.58;92.30;95382.56;5110443;28;20252;-74
2020/12/14 00:53:33;;;;;;;4.67;4.20;;;;;;;5.57;91.66;95374.09;5093548;28;20548;-73
2020/12/14 00:56:01;;;;;;;3.97;3.67;;;;;;;5.48;91.98;95377.53;5107589;28;20193;-73
2020/12/14 00:58:27;;;;;;;3.57;3.27;;;;;;;5.46;91.84;95389.66;5091702;28;20226;-73
2020/12/14 01:00:53;;;;;;;4.00;3.70;;;;;;;5.45;91.55;95381.19;5094310;28;20211;-73
2020/12/14 01:03:18;;;;;;;4.20;3.83;;;;;;;5.49;91.62;95385.06;5111811;28;20200;-73
2020/12/14 01:05:45;;;;;;;4.53;4.13;;;;;;;5.60;91.44;95390.84;5093410;28;20195;-73
2020/12/14 01:08:11;;;;;;;4.60;4.20;;;;;;;5.59;90.92;95389.25;5111740;28;20589;-74
2020/12/14 01:10:37;;;;;;;4.63;4.23;;;;;;;5.62;90.51;95399.97;5093094;28;20220;-73
2020/12/14 01:13:03;;;;;;;4.40;4.00;;;;;;;5.68;90.33;95403.69;5091786;28;20211;-74
2020/12/14 01:15:29;;;;;;;4.60;4.20;;;;;;;5.63;90.94;95411.00;5109214;28;20203;-73
2020/12/14 01:17:55;;;;;;;4.70;4.30;;;;;;;5.59;90.53;95414.78;5111734;28;20646;-73
2020/12/14 01:20:21;;;;;;;4.23;3.90;;;;;;;5.56;90.52;95410.81;5096204;28;20204;-73
2020/12/14 01:22:47;;;;;;;4.50;4.10;;;;;;;5.61;90.24;95426.47;5112207;28;20204;-74
2020/12/14 01:25:13;;;;;;;4.37;3.97;;;;;;;5.63;89.87;95428.88;5099905;28;20200;-74
2020/12/14 01:27:39;;;;;;;4.13;3.73;;;;;;;5.61;89.44;95440.97;5095387;28;20227;-74
2020/12/14 01:30:05;;;;;;;4.23;3.83;;;;;;;5.58;89.99;95436.19;5109019;28;20206;-73
2020/12/14 01:32:31;;;;;;;4.20;3.80;;;;;;;5.52;89.90;95433.28;5115684;28;20210;-73
2020/12/14 01:34:57;;;;;;;4.03;3.70;;;;;;;5.47;90.30;95432.91;5101950;28;20658;-73
2020/12/14 01:37:26;;;;;;;3.73;3.43;;;;;;;5.48;90.31;95426.06;5094723;28;20224;-74
2020/12/14 01:39:52;;;;;;;4.07;3.67;;;;;;;5.41;90.59;95414.81;5096281;28;20196;-73
2020/12/14 01:42:22;;;;;;;4.83;4.40;;;;;;;5.40;91.53;95393.59;5102524;28;20195;-73
2020/12/14 01:44:48;;;;;;;4.70;4.30;;;;;;;5.47;91.13;95396.38;5103701;28;20196;-75
2020/12/14 01:47:17;;;;;;;4.70;4.30;;;;;;;5.51;90.55;95385.72;5101148;28;20238;-74
2020/12/14 01:49:43;;;;;;;4.90;4.50;;;;;;;5.62;90.23;95388.94;5115681;28;20199;-74
2020/12/14 01:52:09;;;;;;;4.60;4.20;;;;;;;5.71;89.17;95375.28;5110290;28;20196;-74
2020/12/14 01:54:36;;;;;;;4.60;4.20;;;;;;;5.62;89.51;95376.97;5104009;28;20642;-73
2020/12/14 01:57:03;;;;;;;4.30;3.90;;;;;;;5.60;89.87;95375.53;5106652;28;20285;-75
2020/12/14 01:59:29;;;;;;;5.30;4.53;;;;;;;5.66;89.38;95370.63;5094840;28;20196;-74
2020/12/14 02:01:55;;;;;;;4.70;4.30;;;;;;;5.62;89.66;95371.06;5101324;28;20698;-74
2020/12/14 02:04:21;;;;;;;5.00;4.50;;;;;;;5.58;89.45;95378.22;5107739;28;20203;-73
2020/12/14 02:06:47;;;;;;;4.87;4.40;;;;;;;5.50;90.05;95373.91;5100303;28;20686;-73
2020/12/14 02:09:13;;;;;;;5.40;4.90;;;;;;;5.45;90.64;95367.63;5115175;28;20227;-73
2020/12/14 02:11:39;;;;;;;5.77;5.20;;;;;;;5.33;91.79;95359.44;5103209;28;20565;-74
2020/12/14 02:14:06;;;;;;;5.80;5.00;;;;;;;5.35;91.99;95346.53;5109759;28;20722;-74
2020/12/14 02:16:32;;;;;;;5.60;5.10;;;;;;;5.40;91.40;95341.75;5094311;28;20345;-73
2020/12/14 02:18:58;;;;;;;6.30;5.70;;;;;;;5.45;91.16;95355.66;5097184;28;20200;-74
2020/12/14 02:21:23;;;;;;;6.23;5.63;;;;;;;5.43;90.96;95347.34;5114959;28;20253;-73
2020/12/14 02:23:49;;;;;;;6.23;5.70;;;;;;;5.43;90.84;95352.47;5112133;28;20256;-73
2020/12/14 02:26:16;;;;;;;6.10;5.53;;;;;;;5.49;90.26;95353.63;5099908;28;20195;-73
2020/12/14 02:28:42;;;;;;;6.73;6.03;;;;;;;5.47;89.89;95355.53;5112586;28;20591;-73
2020/12/14 02:31:08;;;;;;;6.37;5.77;;;;;;;5.52;89.76;95358.44;5114788;28;20207;-74
2020/12/14 02:33:34;;;;;;;6.80;5.73;;;;;;;5.60;89.05;95352.53;5109477;28;20192;-74
2020/12/14 02:36:00;;;;;;;6.43;5.83;;;;;;;5.63;88.78;95365.03;5094246;28;20212;-75
2020/12/14 02:38:25;;;;;;;7.07;6.37;;;;;;;5.62;88.08;95363.41;5100299;28;20219;-75
2020/12/14 02:40:51;;;;;;;7.33;6.30;;;;;;;5.49;88.10;95366.38;5109300;28;20196;-73
2020/12/14 02:43:18;;;;;;;7.23;6.53;;;;;;;5.38;88.43;95353.88;5095197;28;20200;-73
2020/12/14 02:45:44;;;;;;;7.40;6.70;;;;;;;5.46;88.89;95364.94;5114108;28;20203;-74
2020/12/14 02:48:10;;;;;;;7.20;6.50;;;;;;;5.41;88.33;95351.00;5113520;28;20216;-73
2020/12/14 02:50:36;;;;;;;7.27;6.20;;;;;;;5.45;88.08;95354.88;5094112;28;20543;-73
2020/12/14 02:53:02;;;;;;;7.00;6.30;;;;;;;5.54;87.88;95361.63;5093946;28;20200;-73
2020/12/14 02:55:28;;;;;;;7.90;6.00;;;;;;;5.52;87.15;95378.84;5088977;28;20655;-73
2020/12/14 02:57:54;;;;;;;7.00;6.30;;;;;;;5.52;86.53;95383.97;5073117;28;20221;-74
2020/12/14 03:00:21;;;;;;;7.53;6.83;;;;;;;5.40;86.53;95377.47;5090628;28;20253;-73
2020/12/14 03:02:47;;;;;;;7.53;6.83;;;;;;;5.35;86.56;95360.09;5093083;28;20704;-73
2020/12/14 03:05:13;;;;;;;7.53;6.83;;;;;;;5.20;87.20;95364.91;5110368;28;20226;-73
2020/12/14 03:07:39;;;;;;;9.27;6.60;;;;;;;5.21;87.22;95363.97;5113980;28;20215;-74
2020/12/14 03:10:05;;;;;;;7.70;6.63;;;;;;;5.17;87.27;95372.88;5100437;28;20249;-74
2020/12/14 03:12:32;;;;;;;8.13;7.03;;;;;;;5.09;87.67;95366.91;5114029;28;20268;-73
2020/12/14 03:15:00;;;;;;;7.47;6.67;;;;;;;4.99;88.25;95368.75;5098578;28;20207;-74
2020/12/14 03:17:27;;;;;;;8.10;6.93;;;;;;;4.98;88.46;95377.34;5093135;28;20247;-75
2020/12/14 03:19:53;;;;;;;9.07;7.70;;;;;;;4.95;88.37;95370.00;5106832;28;20203;-74
2020/12/14 03:22:19;;;;;;;8.83;7.23;;;;;;;4.95;88.29;95385.28;5113783;28;20721;-73
2020/12/14 03:24:45;;;;;;;8.40;7.27;;;;;;;4.93;88.07;95370.13;5111458;28;20237;-73
2020/12/14 03:27:11;;;;;;;8.07;7.27;;;;;;;4.92;87.95;95368.53;5113194;28;20211;-74
2020/12/14 03:29:37;;;;;;;9.93;7.47;;;;;;;4.86;88.63;95364.81;5102066;28;20200;-74
2020/12/14 03:32:03;;;;;;;7.83;7.00;;;;;;;4.85;88.67;95363.19;5099225;28;20677;-73
2020/12/14 03:34:30;;;;;;;9.23;7.87;;;;;;;4.83;88.75;95365.09;5102552;28;20195;-73
2020/12/14 03:36:57;;;;;;;8.73;7.60;;;;;;;4.79;88.62;95353.59;5097486;28;20220;-74
2020/12/14 03:39:22;;;;;;;8.67;7.77;;;;;;;4.90;88.03;95360.22;5113342;28;20206;-74
2020/12/14 03:41:49;;;;;;;9.13;8.23;;;;;;;4.86;87.56;95366.56;5109739;28;20192;-74
2020/12/14 03:44:15;;;;;;;9.13;8.23;;;;;;;4.83;87.38;95369.41;5100816;28;20204;-75
2020/12/14 03:46:41;;;;;;;8.40;7.23;;;;;;;4.84;87.88;95368.44;5110043;28;20226;-73
2020/12/14 03:49:09;;;;;;;9.37;7.93;;;;;;;4.87;87.06;95357.97;5092786;28;20200;-75
2020/12/14 03:51:36;;;;;;;8.87;7.57;;;;;;;4.75;87.93;95361.69;5092814;28;20269;-74
2020/12/14 03:54:02;;;;;;;8.00;7.20;;;;;;;4.70;87.78;95361.31;5106409;28;20200;-73
2020/12/14 03:56:28;;;;;;;8.35;7.45;;;;;;;4.71;87.96;95375.69;5103676;22;20232;-75
2020/12/14 03:58:54;;;;;;;8.37;7.47;;;;;;;4.66;88.35;95381.19;5071451;28;20219;-74
2020/12/14 04:01:21;;;;;;;8.57;7.67;;;;;;;4.72;87.30;95378.09;5072049;28;20208;-77
2020/12/14 04:03:47;;;;;;;8.40;7.47;;;;;;;4.67;87.59;95376.91;5071503;28;20189;-75
2020/12/14 04:06:17;;;;;;;7.73;6.93;;;;;;;4.61;87.86;95382.59;5071820;28;20445;-78
2020/12/14 04:08:43;;;;;;;7.53;6.73;;;;;;;4.68;87.68;95376.75;5056950;28;20198;-78
2020/12/14 04:11:10;;;;;;;7.63;6.83;;;;;;;4.71;86.91;95371.38;5052249;28;20201;-74
2020/12/14 04:13:36;;;;;;;8.80;7.07;;;;;;;4.76;86.58;95381.16;5071117;28;20288;-75
2020/12/14 04:16:02;;;;;;;7.67;6.87;;;;;;;4.82;85.69;95375.44;5071645;28;20701;-75
2020/12/14 04:18:28;;;;;;;7.60;6.90;;;;;;;4.88;85.56;95369.78;5071581;28;20316;-77
2020/12/14 04:20:54;;;;;;;7.93;7.10;;;;;;;4.81;84.87;95372.09;5072417;28;20622;-77
2020/12/14 04:23:20;;;;;;;7.83;7.03;;;;;;;4.70;84.63;95369.78;5071163;28;20570;-75
2020/12/14 04:25:46;;;;;;;7.17;6.47;;;;;;;4.78;84.62;95374.97;5071383;28;20219;-75
2020/12/14 04:28:12;;;;;;;6.67;5.97;;;;;;;4.81;84.13;95373.88;5071153;28;20846;-75
2020/12/14 04:30:38;;;;;;;6.07;5.47;;;;;;;4.80;82.98;95374.81;5071723;28;20210;-75
2020/12/14 04:33:05;;;;;;;5.80;5.20;;;;;;;4.77;82.27;95377.66;5070961;28;20216;-75
2020/12/14 04:35:31;;;;;;;4.93;4.50;;;;;;;4.79;81.83;95371.47;5071155;28;20286;-75
2020/12/14 04:37:57;;;;;;;4.87;4.47;;;;;;;4.84;81.56;95376.91;5071130;28;20217;-77
2020/12/14 04:40:27;;;;;;;4.83;4.33;;;;;;;4.86;81.25;95380.13;5071978;28;20232;-74
2020/12/14 04:42:57;;;;;;;4.63;4.23;;;;;;;4.87;81.34;95375.81;5058235;28;20229;-77
2020/12/14 04:45:25;;;;;;;5.10;4.27;;;;;;;4.93;81.00;95377.00;5063878;28;20201;-75
2020/12/14 04:47:54;;;;;;;5.10;4.67;;;;;;;4.91;79.70;95377.13;5071915;28;20212;-75
2020/12/14 04:50:22;;;;;;;5.30;4.40;;;;;;;4.92;79.85;95388.13;5053487;28;20606;-77
2020/12/14 04:52:49;;;;;;;5.17;4.67;;;;;;;4.91;78.95;95384.78;5051598;28;20228;-77
2020/12/14 04:55:19;;;;;;;5.70;4.60;;;;;;;4.84;79.39;95376.91;5068569;28;20201;-75
2020/12/14 04:57:45;;;;;;;5.27;4.77;;;;;;;4.75;79.75;95375.25;5071779;28;20599;-77
2020/12/14 05:00:13;;;;;;;5.37;4.87;;;;;;;4.58;79.20;95376.03;5069595;28;20628;-77
2020/12/14 05:02:38;;;;;;;5.37;4.87;;;;;;;4.57;80.10;95378.72;5075653;28;20201;-76
2020/12/14 05:05:04;;;;;;;5.27;4.77;;;;;;;4.56;79.79;95377.13;5056801;28;20194;-77
2020/12/14 05:07:40;;;;;;;5.23;4.73;;;;;;;4.48;79.47;95365.91;5055383;28;20271;-77
2020/12/14 05:10:06;;;;;;;5.33;4.83;;;;;;;4.40;80.24;95373.47;5073953;28;20204;-75
2020/12/14 05:12:38;;;;;;;5.50;5.00;;;;;;;4.37;80.38;95367.84;5075312;28;20204;-76
2020/12/14 05:15:16;;;;;;;5.70;5.20;;;;;;;4.39;80.55;95368.53;5056803;28;20198;-78
2020/12/14 05:17:42;;;;;;;5.50;5.00;;;;;;;4.46;80.38;95374.63;5061143;28;20217;-75
2020/12/14 05:20:13;;;;;;;5.33;4.83;;;;;;;4.48;79.48;95368.44;5075180;28;20262;-77
2020/12/14 05:22:38;;;;;;;5.33;4.83;;;;;;;4.51;79.59;95370.72;5074865;28;20611;-74
2020/12/14 05:25:04;;;;;;;5.13;4.63;;;;;;;4.54;79.41;95372.19;5074821;28;20204;-74
2020/12/14 05:27:33;;;;;;;5.20;4.70;;;;;;;4.51;79.05;95373.25;5074664;28;20220;-74
2020/12/14 05:29:59;;;;;;;5.37;4.87;;;;;;;4.56;79.29;95379.69;5075117;28;20203;-74
2020/12/14 05:32:25;;;;;;;4.60;4.20;;;;;;;4.59;78.42;95379.41;5065617;28;20280;-78
2020/12/14 05:34:51;;;;;;;5.13;4.63;;;;;;;4.52;78.52;95381.72;5054703;28;20263;-77
2020/12/14 05:37:18;;;;;;;5.30;4.80;;;;;;;4.52;78.60;95381.72;5062850;28;20653;-75
2020/12/14 05:39:45;;;;;;;4.63;4.23;;;;;;;4.52;78.53;95376.63;5072450;28;20197;-75
2020/12/14 05:42:16;;;;;;;5.20;4.70;;;;;;;4.53;78.36;95378.22;5070779;28;20200;-77
2020/12/14 05:44:45;;;;;;;5.33;4.83;;;;;;;4.59;78.84;95376.84;5074540;28;20205;-76
2020/12/14 05:47:26;;;;;;;5.13;4.70;;;;;;;4.55;78.13;95372.97;5064706;28;20217;-77
2020/12/14 05:49:52;;;;;;;4.73;4.33;;;;;;;4.46;78.30;95372.09;5072518;28;20212;-77
2020/12/14 05:52:20;;;;;;;5.57;5.07;;;;;;;4.54;78.47;95379.03;5074789;28;20610;-77
2020/12/14 05:54:51;;;;;;;4.60;4.20;;;;;;;4.59;78.56;95380.19;5074377;28;20204;-75
2020/12/14 05:57:28;;;;;;;4.67;4.27;;;;;;;4.58;78.15;95377.78;5074443;28;20316;-75
2020/12/14 05:59:58;;;;;;;4.30;3.90;;;;;;;4.61;77.82;95377.50;5066326;28;20292;-75
2020/12/14 06:02:26;;;;;;;4.10;3.77;;;;;;;4.62;78.04;95374.78;5063688;28;20209;-75
2020/12/14 06:04:55;;;;;;;4.70;4.30;;;;;;;4.63;77.71;95376.38;5074230;28;20201;-74
2020/12/14 06:07:24;;;;;;;4.40;4.00;;;;;;;4.60;77.60;95376.72;5074589;28;20723;-76
2020/12/14 06:10:03;;;;;;;5.20;4.20;;;;;;;4.50;77.11;95381.03;5073455;28;20288;-78
2020/12/14 06:12:30;;;;;;;4.60;4.20;;;;;;;4.48;77.90;95386.28;5074290;28;20205;-75
2020/12/14 06:15:00;;;;;;;4.57;4.17;;;;;;;4.46;77.28;95390.72;5073962;28;20223;-77
2020/12/14 06:17:28;;;;;;;4.60;4.20;;;;;;;4.38;77.55;95377.13;5074315;28;20228;-75
2020/12/14 06:20:01;;;;;;;4.30;3.90;;;;;;;4.34;77.81;95384.25;5074321;28;20208;-78
2020/12/14 06:22:28;;;;;;;4.00;3.70;;;;;;;4.33;78.12;95387.72;5074176;28;20695;-75
2020/12/14 06:24:58;;;;;;;4.47;4.07;;;;;;;4.31;77.92;95392.16;5073892;28;20205;-75
2020/12/14 06:27:25;;;;;;;4.27;3.87;;;;;;;4.33;77.74;95395.38;5073960;28;20223;-76
2020/12/14 06:29:51;;;;;;;4.63;4.23;;;;;;;4.30;78.13;95392.31;5074050;28;20262;-77
2020/12/14 06:32:38;;;;;;;4.57;4.17;;;;;;;4.26;78.29;95393.53;5073908;28;20205;-75
2020/12/14 06:35:06;;;;;;;5.50;3.80;;;;;;;4.31;78.22;95397.25;5073568;28;20201;-77
2020/12/14 06:37:50;;;;;;;4.60;4.20;;;;;;;4.43;77.76;95401.19;5073962;28;20298;-76
2020/12/14 06:40:17;;;;;;;4.03;3.63;;;;;;;4.44;77.62;95395.16;5073871;28;20258;-75
2020/12/14 06:42:43;;;;;;;5.37;4.00;;;;;;;4.32;77.58;95392.97;5073549;28;20711;-74
2020/12/14 06:45:13;;;;;;;4.70;3.83;;;;;;;4.36;77.55;95389.19;5073613;28;20266;-75
2020/12/14 06:47:43;;;;;;;5.60;4.60;;;;;;;4.29;78.09;95388.16;5073580;28;20200;-76
2020/12/14 06:50:28;;;;;;;5.10;4.50;;;;;;;4.32;77.85;95383.56;5073861;28;20204;-76
2020/12/14 06:52:55;;;;;;;27.90;22.00;;;;;;;4.28;78.20;95377.16;5073887;28;20292;-76
2020/12/14 06:55:46;;;;;;;9.70;7.90;;;;;;;4.21;78.28;95382.97;5072947;28;20628;-75
2020/12/14 06:58:31;;;;;;;7.47;5.63;;;;;;;4.14;79.33;95385.28;5073425;28;20647;-75
2020/12/14 07:00:57;;;;;;;5.27;4.77;;;;;;;4.25;78.85;95389.38;5073397;28;20197;-75
2020/12/14 07:03:48;;;;;;;5.07;4.57;;;;;;;4.43;95.31;95388.47;5073499;28;20204;-75
2020/12/14 07:06:25;;;;;;;6.23;4.50;;;;;;;5.21;100.00;95396.34;5067927;28;20225;-75
2020/12/14 07:08:51;;;;;;;7.27;6.60;;;;;;;5.59;84.48;95397.72;5073557;28;20235;-76
2020/12/14 07:11:18;;;;;;;15.63;13.57;;;;;;;5.55;76.31;95404.09;5072805;28;20247;-75
2020/12/14 07:13:45;;;;;;;7.67;6.87;;;;;;;5.34;75.75;95396.78;5073230;28;20196;-77
2020/12/14 07:16:13;;;;;;;5.60;4.80;;;;;;;5.05;75.91;95398.75;5073106;28;20224;-75
2020/12/14 07:18:40;;;;;;;6.00;4.83;;;;;;;4.96;76.73;95404.75;5072948;28;20336;-77
2020/12/14 07:21:11;;;;;;;5.60;4.60;;;;;;;4.76;76.35;95399.81;5072184;28;20200;-75
2020/12/14 07:23:39;;;;;;;4.63;4.17;;;;;;;4.62;78.26;95402.84;5072807;28;20201;-75
2020/12/14 07:26:06;;;;;;;4.93;4.47;;;;;;;4.68;79.15;95396.34;5072741;28;20242;-75
2020/12/14 07:28:40;;;;;;;5.33;4.30;;;;;;;4.69;77.92;95398.75;5072921;28;20208;-75
2020/12/14 07:31:08;;;;;;;7.80;4.50;;;;;;;4.71;77.70;95399.44;5072766;28;20265;-76
2020/12/14 07:33:36;;;;;;;7.50;4.47;;;;;;;4.77;77.74;95400.59;5073013;28;20225;-75
2020/12/14 07:36:03;;;;;;;4.73;4.33;;;;;;;4.75;77.24;95407.59;5072348;28;20228;-76
2020/12/14 07:38:30;;;;;;;7.30;4.50;;;;;;;4.73;77.65;95402.63;5072397;28;20243;-76
2020/12/14 07:41:05;;;;;;;4.87;4.40;;;;;;;4.75;77.59;95403.28;5072735;28;20212;-75
2020/12/14 07:43:30;;;;;;;5.77;4.37;;;;;;;4.74;77.28;95406.78;5072517;28;20647;-75
2020/12/14 07:45:56;;;;;;;4.60;4.20;;;;;;;4.76;77.56;95410.00;5072143;28;20220;-75
2020/12/14 07:48:22;;;;;;;18.00;14.90;;;;;;;4.85;77.15;95413.41;5072343;28;20197;-75
2020/12/14 07:50:48;;;;;;;6.27;5.63;;;;;;;4.96;76.70;95415.75;5072660;28;20205;-75
2020/12/14 07:53:15;;;;;;;9.30;7.57;;;;;;;5.05;77.01;95424.28;5072206;28;20200;-76
2020/12/14 07:55:42;;;;;;;4.73;4.33;;;;;;;5.18;76.13;95412.78;5071838;28;20225;-77
2020/12/14 07:58:08;;;;;;;4.30;3.70;;;;;;;5.10;75.25;95420.34;5072293;28;20266;-74
2020/12/14 08:00:34;;;;;;;4.00;3.70;;;;;;;5.17;75.56;95423.13;5072195;28;20579;-75
2020/12/14 08:03:02;;;;;;;3.90;3.60;;;;;;;5.19;75.18;95413.56;5072176;28;20241;-75
2020/12/14 08:05:28;;;;;;;4.93;3.63;;;;;;;5.34;75.37;95413.84;5071753;28;20209;-75
2020/12/14 08:07:57;;;;;;;4.30;3.90;;;;;;;5.49;74.76;95415.69;5071956;28;20254;-76
2020/12/14 08:10:30;;;;;;;4.23;3.80;;;;;;;5.64;74.57;95423.59;5072328;28;20201;-76
2020/12/14 08:12:57;;;;;;;3.87;3.47;;;;;;;5.80;73.52;95426.25;5072027;28;20548;-78
2020/12/14 08:15:23;;;;;;;4.33;3.43;;;;;;;5.87;72.71;95423.91;5073056;28;20200;-78
2020/12/14 08:17:49;;;;;;;4.03;3.60;;;;;;;5.86;72.43;95420.56;5072636;28;20223;-76
2020/12/14 08:20:27;;;;;;;4.73;3.30;;;;;;;5.92;72.44;95411.53;5072357;28;20209;-76
2020/12/14 08:22:54;;;;;;;5.33;3.50;;;;;;;5.96;71.79;95417.13;5071977;28;20625;-75
2020/12/14 08:25:21;;;;;;;4.33;3.63;;;;;;;6.05;71.63;95413.66;5071553;28;20208;-75
2020/12/14 08:27:50;;;;;;;4.20;3.47;;;;;;;6.18;71.30;95403.78;5072105;28;20197;-76
2020/12/14 08:30:19;;;;;;;5.13;3.30;;;;;;;6.28;71.28;95411.34;5071712;28;20208;-75
2020/12/14 08:32:45;;;;;;;3.80;3.07;;;;;;;6.35;70.11;95408.00;5071502;28;20208;-75
2020/12/14 08:35:20;;;;;;;4.77;3.90;;;;;;;6.50;69.82;95414.16;5072022;28;20249;-75
2020/12/14 08:37:48;;;;;;;3.90;3.60;;;;;;;6.56;68.47;95413.50;5071733;28;20220;-76
2020/12/14 08:40:13;;;;;;;3.73;3.30;;;;;;;6.64;69.03;95420.41;5071701;28;20204;-76
2020/12/14 08:42:39;;;;;;;3.27;2.97;;;;;;;6.78;68.75;95422.34;5071774;28;20207;-76
2020/12/14 08:45:08;;;;;;;4.20;3.40;;;;;;;6.73;68.26;95416.13;5071444;28;20661;-76
2020/12/14 08:47:40;;;;;;;3.73;3.33;;;;;;;6.76;68.21;95418.34;5071742;28;20618;-75
2020/12/14 08:50:07;;;;;;;3.37;3.07;;;;;;;6.85;67.51;95425.09;5072022;28;20208;-75
2020/12/14 08:52:33;;;;;;;3.10;2.80;;;;;;;6.91;66.80;95416.81;5071746;28;20207;-77
2020/12/14 08:54:59;;;;;;;2.60;2.40;;;;;;;7.03;66.80;95422.41;5071170;28;20196;-76
2020/12/14 08:57:27;;;;;;;3.23;2.90;;;;;;;7.04;66.12;95417.13;5071063;28;20239;-76
2020/12/14 09:00:05;;;;;;;2.47;2.27;;;;;;;6.99;65.34;95421.13;5072050;28;20205;-75
2020/12/14 09:02:31;;;;;;;3.63;2.40;;;;;;;6.92;65.12;95424.31;5071780;28;20200;-76
2020/12/14 09:04:58;;;;;;;2.37;2.17;;;;;;;7.03;65.75;95427.53;5071638;28;20201;-77
2020/12/14 09:07:24;;;;;;;2.33;2.13;;;;;;;7.05;64.71;95420.50;5071287;28;20777;-75
2020/12/14 09:09:51;;;;;;;2.40;2.20;;;;;;;7.06;64.61;95424.66;5072073;28;20205;-75
2020/12/14 09:12:17;;;;;;;3.50;2.10;;;;;;;7.15;63.56;95431.38;5071364;28;20196;-76
2020/12/14 09:14:44;;;;;;;2.03;1.83;;;;;;;7.31;63.02;95433.97;5071416;28;20274;-76
2020/12/14 09:17:13;;;;;;;2.03;1.50;;;;;;;7.52;62.23;95441.13;5071253;28;20229;-76
2020/12/14 09:19:39;;;;;;;2.93;1.90;;;;;;;7.66;61.08;95450.75;5071466;28;20201;-75
2020/12/14 09:22:06;;;;;;;2.10;1.90;;;;;;;7.70;61.05;95458.91;5071335;28;20634;-75
2020/12/14 09:24:36;;;;;;;3.70;1.90;;;;;;;7.70;60.89;95446.09;5071201;28;20205;-76
2020/12/14 09:27:04;;;;;;;2.13;1.90;;;;;;;7.82;60.96;95457.63;5071080;28;20228;-75
2020/12/14 09:29:30;;;;;;;2.20;1.97;;;;;;;7.99;61.31;95441.25;5071569;28;20614;-76
2020/12/14 09:31:57;;;;;;;39.47;32.03;;;;;;;8.12;61.64;95446.66;5071344;28;20821;-76
2020/12/14 09:34:23;;;;;;;6.50;5.80;;;;;;;8.35;61.95;95440.84;5071512;28;20250;-75
2020/12/14 09:36:51;;;;;;;2.87;2.53;;;;;;;8.36;59.79;95442.44;5071499;28;20232;-75
2020/12/14 09:39:18;;;;;;;2.00;1.90;;;;;;;8.32;60.35;95435.06;5070934;28;20228;-76
2020/12/14 09:41:44;;;;;;;1.80;1.70;;;;;;;8.24;60.10;95432.53;5071707;28;20224;-76
2020/12/14 09:44:10;;;;;;;1.90;1.80;;;;;;;8.12;59.47;95430.47;5071882;28;20283;-76
2020/12/14 09:46:36;;;;;;;2.67;2.10;;;;;;;8.25;61.08;95434.13;5074930;28;20571;-75
2020/12/14 09:49:02;;;;;;;2.70;2.10;;;;;;;8.17;59.95;95433.34;5074834;28;20687;-76
2020/12/14 09:51:28;;;;;;;1.97;1.80;;;;;;;8.13;59.12;95438.00;5074857;28;20197;-76
2020/12/14 09:53:55;;;;;;;2.53;2.00;;;;;;;8.22;59.06;95429.31;5074082;28;20201;-75
2020/12/14 09:56:22;;;;;;;2.50;1.93;;;;;;;8.19;58.80;95421.16;5074168;28;20603;-75
2020/12/14 09:58:49;;;;;;;2.20;2.00;;;;;;;8.20;58.62;95420.19;5074333;28;20772;-76
2020/12/14 10:01:15;;;;;;;2.30;2.03;;;;;;;8.33;59.65;95412.78;5134099;22;20235;-75
2020/12/14 10:03:41;;;;;;;2.57;1.70;;;;;;;8.36;59.69;95416.78;5115288;28;20206;-75
2020/12/14 10:06:10;;;;;;;3.30;2.07;;;;;;;8.28;58.20;95420.94;5115583;28;20199;-75
2020/12/14 10:08:39;;;;;;;1.97;1.80;;;;;;;8.31;58.52;95415.50;5115165;28;20650;-75
2020/12/14 10:11:05;;;;;;;2.10;2.00;;;;;;;8.51;58.03;95418.47;5114856;28;20776;-75
2020/12/14 10:13:32;;;;;;;2.00;1.80;;;;;;;8.72;57.93;95420.47;5114959;28;20286;-75
2020/12/14 10:15:58;;;;;;;2.60;1.80;;;;;;;8.91;57.25;95424.38;5114883;28;20199;-77
2020/12/14 10:18:25;;;;;;;2.53;2.10;;;;;;;8.90;57.05;95425.34;5114981;28;20222;-75
2020/12/14 10:20:51;;;;;;;4.30;2.20;;;;;;;8.93;56.58;95425.00;5115010;27;20252;-74
2020/12/14 10:23:17;;;;;;;2.10;1.90;;;;;;;8.99;57.53;95424.31;5114796;28;20204;-76
2020/12/14 10:25:43;;;;;;;4.27;2.20;;;;;;;9.07;56.44;95426.03;5114299;28;20635;-77
2020/12/14 10:28:09;;;;;;;3.43;2.27;;;;;;;8.99;56.27;95426.91;5114323;28;20248;-75
2020/12/14 10:30:36;;;;;;;3.20;2.27;;;;;;;8.98;56.21;95425.28;5114774;28;20227;-75
2020/12/14 10:33:03;;;;;;;2.03;1.90;;;;;;;8.94;56.75;95418.91;5114622;28;20200;-75
2020/12/14 10:35:29;;;;;;;3.10;2.10;;;;;;;8.97;56.64;95429.63;5114415;28;20200;-75
2020/12/14 10:37:55;;;;;;;3.70;1.93;;;;;;;9.10;57.32;95429.06;5114336;28;20315;-76
2020/12/14 10:40:21;;;;;;;2.40;2.20;;;;;;;9.19;55.95;95422.09;5114505;28;20246;-74
2020/12/14 10:42:47;;;;;;;3.63;2.27;;;;;;;9.13;55.79;95426.16;5114183;28;20203;-73
2020/12/14 10:45:13;;;;;;;2.23;2.00;;;;;;;9.06;55.37;95422.66;5114562;28;20275;-74
2020/12/14 10:47:40;;;;;;;3.30;2.43;;;;;;;9.02;56.19;95412.91;5114995;28;20199;-75
2020/12/14 10:50:06;;;;;;;2.30;2.10;;;;;;;9.10;56.90;95418.78;5114507;28;20235;-74
2020/12/14 10:52:32;;;;;;;2.37;2.17;;;;;;;9.19;56.10;95422.09;5114485;28;20203;-75
2020/12/14 10:54:58;;;;;;;2.80;2.07;;;;;;;9.20;55.13;95426.28;5114098;28;20222;-76
2020/12/14 10:57:24;;;;;;;2.40;2.20;;;;;;;9.29;55.78;95420.09;5114681;28;20210;-76
2020/12/14 10:59:50;;;;;;;2.17;1.93;;;;;;;9.40;55.43;95417.13;5113694;27;20714;-74
2020/12/14 11:02:16;;;;;;;2.20;2.00;;;;;;;9.56;55.14;95416.19;5113152;28;20214;-75
2020/12/14 11:04:43;;;;;;;3.70;2.20;;;;;;;9.65;54.85;95412.56;5112653;28;20211;-75
2020/12/14 11:07:09;;;;;;;2.57;2.20;;;;;;;9.64;55.09;95409.19;5113878;28;20210;-75
2020/12/14 11:09:35;;;;;;;2.17;2.00;;;;;;;9.68;54.55;95412.22;5113713;28;20702;-76
2020/12/14 11:12:05;;;;;;;3.07;2.23;;;;;;;9.64;54.24;95416.09;5113795;28;20260;-76
2020/12/14 11:14:31;;;;;;;2.33;2.20;;;;;;;9.55;55.06;95417.16;5113817;28;20199;-77
2020/12/14 11:16:57;;;;;;;2.70;2.40;;;;;;;9.65;55.35;95417.69;5113774;28;20195;-75
2020/12/14 11:19:23;;;;;;;2.73;2.10;;;;;;;9.67;55.10;95415.75;5113686;28;20219;-72
2020/12/14 11:21:52;;;;;;;4.00;3.07;;;;;;;9.59;54.63;95413.28;5113757;28;20241;-74
2020/12/14 11:24:18;;;;;;;2.57;2.20;;;;;;;9.61;55.91;95408.75;5113130;28;20231;-73
2020/12/14 11:26:45;;;;;;;2.33;2.13;;;;;;;9.67;55.25;95408.84;5113449;28;20204;-73
2020/12/14 11:29:11;;;;;;;2.87;2.20;;;;;;;9.73;55.81;95409.91;5113649;28;20222;-73
2020/12/14 11:31:40;;;;;;;2.53;2.33;;;;;;;9.88;55.56;95399.66;5113710;28;20210;-76
2020/12/14 11:34:06;;;;;;;2.83;2.33;;;;;;;9.84;55.37;95390.69;5113269;28;20215;-74
2020/12/14 11:36:32;;;;;;;3.83;2.57;;;;;;;9.82;55.01;95387.50;5113304;28;20205;-74
2020/12/14 11:39:00;;;;;;;2.70;2.33;;;;;;;9.78;54.49;95381.91;5113210;28;20269;-75
2020/12/14 11:41:26;;;;;;;5.07;2.40;;;;;;;9.75;54.95;95384.03;5113368;28;20202;-73
2020/12/14 11:43:52;;;;;;;2.43;2.23;;;;;;;9.77;54.84;95374.38;5112881;27;20634;-74